sensor_id;sensor_type;location;lat;lon;timestamp;P1;durP1;ratioP1;P2;durP2;ratioP2
34200;SDS011;20469;55.638;37.670;2023-04-15T00:01:50;6.35;;;2.08;;
34200;SDS011;20469;55.638;37.670;2023-04-15T00:04:18;4.03;;;1.60;;
34200;SDS011;20469;55.638;37.670;2023-04-15T00:06:52;4.40;;;1.98;;
34200;SDS011;20469;55.638;37.670;2023-04-15T00:09:20;4.10;;;1.70;;
34200;SDS011;20469;55.638;37.670;2023-04-15T00:11:47;6.82;;;2.20;;
34200;SDS011;20469;55.638;37.670;2023-04-15T00:14:16;8.70;;;2.00;;
34200;SDS011;20469;55.638;37.670;2023-04-15T00:16:43;5.00;;;1.70;;
34200;SDS011;20469;55.638;37.670;2023-04-15T00:19:10;5.25;;;2.03;;
34200;SDS011;20469;55.638;37.670;2023-04-15T00:21:38;4.65;;;1.90;;
34200;SDS011;20469;55.638;37.670;2023-04-15T00:24:05;4.60;;;1.98;;
34200;SDS011;20469;55.638;37.670;2023-04-15T00:26:32;3.45;;;1.63;;
34200;SDS011;20469;55.638;37.670;2023-04-15T00:28:59;4.28;;;1.88;;
34200;SDS011;20469;55.638;37.670;2023-04-15T00:31:27;4.22;;;1.77;;
34200;SDS011;20469;55.638;37.670;2023-04-15T00:33:54;7.68;;;2.22;;
34200;SDS011;20469;55.638;37.670;2023-04-15T00:36:21;3.45;;;2.10;;
34200;SDS011;20469;55.638;37.670;2023-04-15T00:38:48;7.13;;;2.38;;
34200;SDS011;20469;55.638;37.670;2023-04-15T00:41:16;6.35;;;1.83;;
34200;SDS011;20469;55.638;37.670;2023-04-15T00:43:44;5.13;;;1.88;;
34200;SDS011;20469;55.638;37.670;2023-04-15T00:46:11;7.15;;;2.08;;
34200;SDS011;20469;55.638;37.670;2023-04-15T00:48:41;3.70;;;1.88;;
34200;SDS011;20469;55.638;37.670;2023-04-15T00:51:09;3.88;;;1.80;;
34200;SDS011;20469;55.638;37.670;2023-04-15T00:53:36;3.10;;;1.70;;
34200;SDS011;20469;55.638;37.670;2023-04-15T00:56:03;3.15;;;1.85;;
34200;SDS011;20469;55.638;37.670;2023-04-15T00:58:31;4.65;;;1.88;;
34200;SDS011;20469;55.638;37.670;2023-04-15T01:00:58;5.28;;;2.10;;
34200;SDS011;20469;55.638;37.670;2023-04-15T01:03:25;6.97;;;2.22;;
34200;SDS011;20469;55.638;37.670;2023-04-15T01:05:53;3.83;;;2.00;;
34200;SDS011;20469;55.638;37.670;2023-04-15T01:08:27;5.85;;;2.25;;
34200;SDS011;20469;55.638;37.670;2023-04-15T01:10:58;5.95;;;1.95;;
34200;SDS011;20469;55.638;37.670;2023-04-15T01:13:29;9.43;;;2.60;;
34200;SDS011;20469;55.638;37.670;2023-04-15T01:15:56;7.35;;;2.25;;
34200;SDS011;20469;55.638;37.670;2023-04-15T01:18:24;5.40;;;2.10;;
34200;SDS011;20469;55.638;37.670;2023-04-15T01:20:51;4.80;;;2.00;;
34200;SDS011;20469;55.638;37.670;2023-04-15T01:23:19;6.35;;;1.90;;
34200;SDS011;20469;55.638;37.670;2023-04-15T01:25:48;4.70;;;1.90;;
34200;SDS011;20469;55.638;37.670;2023-04-15T01:28:16;6.10;;;2.17;;
34200;SDS011;20469;55.638;37.670;2023-04-15T01:30:43;5.60;;;2.35;;
34200;SDS011;20469;55.638;37.670;2023-04-15T01:33:10;3.05;;;1.70;;
34200;SDS011;20469;55.638;37.670;2023-04-15T01:35:56;6.50;;;2.20;;
34200;SDS011;20469;55.638;37.670;2023-04-15T01:38:25;4.28;;;2.00;;
34200;SDS011;20469;55.638;37.670;2023-04-15T01:40:53;6.20;;;1.98;;
34200;SDS011;20469;55.638;37.670;2023-04-15T01:43:21;3.97;;;2.00;;
34200;SDS011;20469;55.638;37.670;2023-04-15T01:45:49;4.43;;;2.00;;
34200;SDS011;20469;55.638;37.670;2023-04-15T01:48:18;5.03;;;2.15;;
34200;SDS011;20469;55.638;37.670;2023-04-15T01:50:46;5.32;;;2.17;;
34200;SDS011;20469;55.638;37.670;2023-04-15T01:53:15;11.38;;;2.95;;
34200;SDS011;20469;55.638;37.670;2023-04-15T01:55:43;7.00;;;2.40;;
34200;SDS011;20469;55.638;37.670;2023-04-15T01:58:12;4.88;;;2.25;;
34200;SDS011;20469;55.638;37.670;2023-04-15T02:00:40;3.60;;;2.30;;
34200;SDS011;20469;55.638;37.670;2023-04-15T02:03:10;5.88;;;2.20;;
34200;SDS011;20469;55.638;37.670;2023-04-15T02:05:39;8.38;;;2.33;;
34200;SDS011;20469;55.638;37.670;2023-04-15T02:08:07;4.65;;;2.20;;
34200;SDS011;20469;55.638;37.670;2023-04-15T02:10:36;3.65;;;2.10;;
34200;SDS011;20469;55.638;37.670;2023-04-15T02:13:05;4.68;;;2.20;;
34200;SDS011;20469;55.638;37.670;2023-04-15T02:15:33;6.07;;;2.42;;
34200;SDS011;20469;55.638;37.670;2023-04-15T02:18:03;4.38;;;2.35;;
34200;SDS011;20469;55.638;37.670;2023-04-15T02:20:31;4.10;;;2.30;;
34200;SDS011;20469;55.638;37.670;2023-04-15T02:23:00;6.88;;;2.75;;
34200;SDS011;20469;55.638;37.670;2023-04-15T02:25:28;8.23;;;2.95;;
34200;SDS011;20469;55.638;37.670;2023-04-15T02:27:56;6.10;;;2.47;;
34200;SDS011;20469;55.638;37.670;2023-04-15T02:30:25;5.47;;;2.42;;
34200;SDS011;20469;55.638;37.670;2023-04-15T02:32:53;6.88;;;2.60;;
34200;SDS011;20469;55.638;37.670;2023-04-15T02:35:22;6.93;;;2.58;;
34200;SDS011;20469;55.638;37.670;2023-04-15T02:37:52;5.47;;;2.35;;
34200;SDS011;20469;55.638;37.670;2023-04-15T02:40:20;5.38;;;2.60;;
34200;SDS011;20469;55.638;37.670;2023-04-15T02:42:49;5.72;;;2.70;;
34200;SDS011;20469;55.638;37.670;2023-04-15T02:45:17;7.65;;;2.75;;
34200;SDS011;20469;55.638;37.670;2023-04-15T02:47:50;5.60;;;2.85;;
34200;SDS011;20469;55.638;37.670;2023-04-15T02:50:18;6.68;;;2.60;;
34200;SDS011;20469;55.638;37.670;2023-04-15T02:52:46;6.88;;;2.60;;
34200;SDS011;20469;55.638;37.670;2023-04-15T02:55:15;6.30;;;2.58;;
34200;SDS011;20469;55.638;37.670;2023-04-15T02:57:44;4.60;;;2.67;;
34200;SDS011;20469;55.638;37.670;2023-04-15T03:00:13;8.40;;;2.65;;
34200;SDS011;20469;55.638;37.670;2023-04-15T03:02:41;5.82;;;2.60;;
34200;SDS011;20469;55.638;37.670;2023-04-15T03:05:11;6.97;;;2.40;;
34200;SDS011;20469;55.638;37.670;2023-04-15T03:07:40;6.82;;;2.78;;
34200;SDS011;20469;55.638;37.670;2023-04-15T03:10:09;5.65;;;2.40;;
34200;SDS011;20469;55.638;37.670;2023-04-15T03:12:37;4.68;;;2.72;;
34200;SDS011;20469;55.638;37.670;2023-04-15T03:15:07;5.38;;;2.50;;
34200;SDS011;20469;55.638;37.670;2023-04-15T03:17:36;7.13;;;2.40;;
34200;SDS011;20469;55.638;37.670;2023-04-15T03:20:05;7.20;;;2.42;;
34200;SDS011;20469;55.638;37.670;2023-04-15T03:22:34;7.85;;;2.85;;
34200;SDS011;20469;55.638;37.670;2023-04-15T03:25:02;7.20;;;2.60;;
34200;SDS011;20469;55.638;37.670;2023-04-15T03:27:31;10.00;;;2.60;;
34200;SDS011;20469;55.638;37.670;2023-04-15T03:29:59;6.85;;;2.60;;
34200;SDS011;20469;55.638;37.670;2023-04-15T03:32:27;8.10;;;2.80;;
34200;SDS011;20469;55.638;37.670;2023-04-15T03:34:56;6.30;;;2.50;;
34200;SDS011;20469;55.638;37.670;2023-04-15T03:37:24;8.00;;;2.40;;
34200;SDS011;20469;55.638;37.670;2023-04-15T03:39:52;8.15;;;2.72;;
34200;SDS011;20469;55.638;37.670;2023-04-15T03:42:21;8.02;;;2.70;;
34200;SDS011;20469;55.638;37.670;2023-04-15T03:44:49;5.90;;;2.75;;
34200;SDS011;20469;55.638;37.670;2023-04-15T03:47:18;6.03;;;2.60;;
34200;SDS011;20469;55.638;37.670;2023-04-15T03:49:46;6.63;;;2.50;;
34200;SDS011;20469;55.638;37.670;2023-04-15T03:52:14;7.03;;;2.78;;
34200;SDS011;20469;55.638;37.670;2023-04-15T03:54:43;9.18;;;2.67;;
34200;SDS011;20469;55.638;37.670;2023-04-15T03:57:11;4.72;;;2.83;;
34200;SDS011;20469;55.638;37.670;2023-04-15T03:59:39;7.45;;;2.90;;
34200;SDS011;20469;55.638;37.670;2023-04-15T04:02:07;7.38;;;2.33;;
34200;SDS011;20469;55.638;37.670;2023-04-15T04:04:36;5.95;;;2.30;;
34200;SDS011;20469;55.638;37.670;2023-04-15T04:07:04;7.30;;;2.38;;
34200;SDS011;20469;55.638;37.670;2023-04-15T04:09:33;8.40;;;2.35;;
34200;SDS011;20469;55.638;37.670;2023-04-15T04:12:01;9.00;;;2.80;;
34200;SDS011;20469;55.638;37.670;2023-04-15T04:14:30;8.25;;;2.42;;
34200;SDS011;20469;55.638;37.670;2023-04-15T04:16:59;8.77;;;2.60;;
34200;SDS011;20469;55.638;37.670;2023-04-15T04:19:27;6.32;;;2.70;;
34200;SDS011;20469;55.638;37.670;2023-04-15T04:21:56;4.88;;;2.40;;
34200;SDS011;20469;55.638;37.670;2023-04-15T04:24:25;10.70;;;2.92;;
34200;SDS011;20469;55.638;37.670;2023-04-15T04:26:53;6.80;;;2.60;;
34200;SDS011;20469;55.638;37.670;2023-04-15T04:29:23;13.20;;;3.00;;
34200;SDS011;20469;55.638;37.670;2023-04-15T04:31:51;7.43;;;2.33;;
34200;SDS011;20469;55.638;37.670;2023-04-15T04:34:19;5.13;;;2.08;;
34200;SDS011;20469;55.638;37.670;2023-04-15T04:36:48;7.40;;;2.40;;
34200;SDS011;20469;55.638;37.670;2023-04-15T04:39:16;7.65;;;2.90;;
34200;SDS011;20469;55.638;37.670;2023-04-15T04:41:44;6.18;;;2.20;;
34200;SDS011;20469;55.638;37.670;2023-04-15T04:44:12;5.22;;;2.22;;
34200;SDS011;20469;55.638;37.670;2023-04-15T04:46:41;7.57;;;2.47;;
34200;SDS011;20469;55.638;37.670;2023-04-15T04:49:09;8.80;;;2.55;;
34200;SDS011;20469;55.638;37.670;2023-04-15T04:51:37;5.93;;;2.00;;
34200;SDS011;20469;55.638;37.670;2023-04-15T04:54:06;6.97;;;2.20;;
34200;SDS011;20469;55.638;37.670;2023-04-15T04:56:34;6.40;;;2.10;;
34200;SDS011;20469;55.638;37.670;2023-04-15T04:59:03;4.78;;;1.98;;
34200;SDS011;20469;55.638;37.670;2023-04-15T05:01:31;6.93;;;1.90;;
34200;SDS011;20469;55.638;37.670;2023-04-15T05:03:59;4.10;;;2.13;;
34200;SDS011;20469;55.638;37.670;2023-04-15T05:06:29;7.05;;;1.95;;
34200;SDS011;20469;55.638;37.670;2023-04-15T05:08:58;8.05;;;2.08;;
34200;SDS011;20469;55.638;37.670;2023-04-15T05:11:26;5.75;;;2.00;;
34200;SDS011;20469;55.638;37.670;2023-04-15T05:13:55;6.18;;;2.03;;
34200;SDS011;20469;55.638;37.670;2023-04-15T05:16:24;6.80;;;2.53;;
34200;SDS011;20469;55.638;37.670;2023-04-15T05:18:53;7.90;;;2.30;;
34200;SDS011;20469;55.638;37.670;2023-04-15T05:21:21;8.38;;;2.13;;
34200;SDS011;20469;55.638;37.670;2023-04-15T05:23:49;5.63;;;2.03;;
34200;SDS011;20469;55.638;37.670;2023-04-15T05:26:18;4.57;;;1.95;;
34200;SDS011;20469;55.638;37.670;2023-04-15T05:28:48;5.88;;;2.47;;
34200;SDS011;20469;55.638;37.670;2023-04-15T05:31:16;3.50;;;1.77;;
34200;SDS011;20469;55.638;37.670;2023-04-15T05:33:45;4.38;;;1.90;;
34200;SDS011;20469;55.638;37.670;2023-04-15T05:36:13;4.05;;;1.60;;
34200;SDS011;20469;55.638;37.670;2023-04-15T05:38:42;5.28;;;1.73;;
34200;SDS011;20469;55.638;37.670;2023-04-15T05:41:10;5.30;;;1.85;;
34200;SDS011;20469;55.638;37.670;2023-04-15T05:43:38;4.70;;;1.80;;
34200;SDS011;20469;55.638;37.670;2023-04-15T05:46:07;3.38;;;2.20;;
34200;SDS011;20469;55.638;37.670;2023-04-15T05:48:35;3.30;;;2.10;;
34200;SDS011;20469;55.638;37.670;2023-04-15T05:51:03;5.03;;;1.95;;
34200;SDS011;20469;55.638;37.670;2023-04-15T05:53:32;4.63;;;1.90;;
34200;SDS011;20469;55.638;37.670;2023-04-15T05:56:00;4.45;;;1.80;;
34200;SDS011;20469;55.638;37.670;2023-04-15T05:58:29;5.47;;;2.00;;
34200;SDS011;20469;55.638;37.670;2023-04-15T06:00:57;3.00;;;2.00;;
34200;SDS011;20469;55.638;37.670;2023-04-15T06:03:26;9.35;;;2.75;;
34200;SDS011;20469;55.638;37.670;2023-04-15T06:05:55;7.90;;;2.80;;
34200;SDS011;20469;55.638;37.670;2023-04-15T06:08:23;6.88;;;2.63;;
34200;SDS011;20469;55.638;37.670;2023-04-15T06:10:51;4.25;;;2.08;;
34200;SDS011;20469;55.638;37.670;2023-04-15T06:13:20;5.53;;;2.22;;
34200;SDS011;20469;55.638;37.670;2023-04-15T06:15:48;8.30;;;2.30;;
34200;SDS011;20469;55.638;37.670;2023-04-15T06:18:16;9.07;;;2.97;;
34200;SDS011;20469;55.638;37.670;2023-04-15T06:20:45;8.77;;;2.40;;
34200;SDS011;20469;55.638;37.670;2023-04-15T06:23:13;11.25;;;2.45;;
34200;SDS011;20469;55.638;37.670;2023-04-15T06:25:42;7.75;;;2.50;;
34200;SDS011;20469;55.638;37.670;2023-04-15T06:28:10;7.40;;;2.20;;
34200;SDS011;20469;55.638;37.670;2023-04-15T06:30:38;8.10;;;2.83;;
34200;SDS011;20469;55.638;37.670;2023-04-15T06:33:07;7.80;;;2.80;;
34200;SDS011;20469;55.638;37.670;2023-04-15T06:35:37;7.38;;;2.30;;
34200;SDS011;20469;55.638;37.670;2023-04-15T06:38:05;8.43;;;2.53;;
34200;SDS011;20469;55.638;37.670;2023-04-15T06:40:34;10.70;;;2.65;;
34200;SDS011;20469;55.638;37.670;2023-04-15T06:43:02;10.13;;;2.70;;
34200;SDS011;20469;55.638;37.670;2023-04-15T06:45:31;6.15;;;2.28;;
34200;SDS011;20469;55.638;37.670;2023-04-15T06:47:59;6.53;;;2.05;;
34200;SDS011;20469;55.638;37.670;2023-04-15T06:50:28;13.15;;;2.85;;
34200;SDS011;20469;55.638;37.670;2023-04-15T06:52:56;13.48;;;3.13;;
34200;SDS011;20469;55.638;37.670;2023-04-15T06:55:25;4.00;;;2.00;;
34200;SDS011;20469;55.638;37.670;2023-04-15T06:57:54;3.33;;;1.88;;
34200;SDS011;20469;55.638;37.670;2023-04-15T07:00:22;8.07;;;2.08;;
34200;SDS011;20469;55.638;37.670;2023-04-15T07:02:50;5.05;;;2.10;;
34200;SDS011;20469;55.638;37.670;2023-04-15T07:05:19;6.03;;;2.10;;
34200;SDS011;20469;55.638;37.670;2023-04-15T07:07:47;8.75;;;2.40;;
34200;SDS011;20469;55.638;37.670;2023-04-15T07:10:16;4.20;;;1.88;;
34200;SDS011;20469;55.638;37.670;2023-04-15T07:12:46;7.18;;;2.17;;
34200;SDS011;20469;55.638;37.670;2023-04-15T07:15:15;7.53;;;2.28;;
34200;SDS011;20469;55.638;37.670;2023-04-15T07:17:44;6.47;;;2.30;;
34200;SDS011;20469;55.638;37.670;2023-04-15T07:20:12;5.03;;;1.98;;
34200;SDS011;20469;55.638;37.670;2023-04-15T07:22:41;6.68;;;2.15;;
34200;SDS011;20469;55.638;37.670;2023-04-15T07:25:09;5.53;;;1.80;;
34200;SDS011;20469;55.638;37.670;2023-04-15T07:27:37;9.50;;;2.70;;
34200;SDS011;20469;55.638;37.670;2023-04-15T07:30:06;9.95;;;2.45;;
34200;SDS011;20469;55.638;37.670;2023-04-15T07:32:36;6.20;;;2.53;;
34200;SDS011;20469;55.638;37.670;2023-04-15T07:35:05;6.20;;;2.08;;
34200;SDS011;20469;55.638;37.670;2023-04-15T07:37:34;6.70;;;1.90;;
34200;SDS011;20469;55.638;37.670;2023-04-15T07:40:02;13.13;;;2.78;;
34200;SDS011;20469;55.638;37.670;2023-04-15T07:42:33;6.45;;;2.28;;
34200;SDS011;20469;55.638;37.670;2023-04-15T07:45:02;8.48;;;2.50;;
34200;SDS011;20469;55.638;37.670;2023-04-15T07:47:30;7.90;;;2.10;;
34200;SDS011;20469;55.638;37.670;2023-04-15T07:49:59;7.55;;;2.10;;
34200;SDS011;20469;55.638;37.670;2023-04-15T07:52:28;6.38;;;2.35;;
34200;SDS011;20469;55.638;37.670;2023-04-15T07:54:57;6.05;;;2.00;;
34200;SDS011;20469;55.638;37.670;2023-04-15T07:57:25;6.50;;;2.88;;
34200;SDS011;20469;55.638;37.670;2023-04-15T07:59:53;3.28;;;2.08;;
34200;SDS011;20469;55.638;37.670;2023-04-15T08:02:21;10.13;;;2.50;;
34200;SDS011;20469;55.638;37.670;2023-04-15T08:04:50;4.97;;;2.22;;
34200;SDS011;20469;55.638;37.670;2023-04-15T08:07:20;11.05;;;3.08;;
34200;SDS011;20469;55.638;37.670;2023-04-15T08:09:49;6.55;;;2.33;;
34200;SDS011;20469;55.638;37.670;2023-04-15T08:12:17;4.40;;;2.40;;
34200;SDS011;20469;55.638;37.670;2023-04-15T08:14:45;9.32;;;3.20;;
34200;SDS011;20469;55.638;37.670;2023-04-15T08:17:14;8.25;;;2.80;;
34200;SDS011;20469;55.638;37.670;2023-04-15T08:19:43;8.50;;;2.80;;
34200;SDS011;20469;55.638;37.670;2023-04-15T08:22:11;5.88;;;2.50;;
34200;SDS011;20469;55.638;37.670;2023-04-15T08:24:45;8.77;;;2.42;;
34200;SDS011;20469;55.638;37.670;2023-04-15T08:27:13;8.43;;;2.90;;
34200;SDS011;20469;55.638;37.670;2023-04-15T08:29:41;8.13;;;2.72;;
34200;SDS011;20469;55.638;37.670;2023-04-15T08:32:10;7.72;;;2.60;;
34200;SDS011;20469;55.638;37.670;2023-04-15T08:34:38;5.82;;;2.75;;
34200;SDS011;20469;55.638;37.670;2023-04-15T08:37:06;9.75;;;2.90;;
34200;SDS011;20469;55.638;37.670;2023-04-15T08:39:36;8.40;;;2.67;;
34200;SDS011;20469;55.638;37.670;2023-04-15T08:42:07;8.75;;;3.00;;
34200;SDS011;20469;55.638;37.670;2023-04-15T08:44:40;8.10;;;2.67;;
34200;SDS011;20469;55.638;37.670;2023-04-15T08:47:12;10.27;;;2.78;;
34200;SDS011;20469;55.638;37.670;2023-04-15T08:49:44;5.95;;;2.72;;
34200;SDS011;20469;55.638;37.670;2023-04-15T08:52:15;7.53;;;2.70;;
34200;SDS011;20469;55.638;37.670;2023-04-15T08:54:43;7.43;;;3.03;;
34200;SDS011;20469;55.638;37.670;2023-04-15T08:57:12;7.93;;;3.17;;
34200;SDS011;20469;55.638;37.670;2023-04-15T08:59:41;5.35;;;2.78;;
34200;SDS011;20469;55.638;37.670;2023-04-15T09:02:10;7.13;;;2.97;;
34200;SDS011;20469;55.638;37.670;2023-04-15T09:04:39;8.13;;;2.97;;
34200;SDS011;20469;55.638;37.670;2023-04-15T09:07:08;7.63;;;2.80;;
34200;SDS011;20469;55.638;37.670;2023-04-15T09:09:36;8.90;;;2.70;;
34200;SDS011;20469;55.638;37.670;2023-04-15T09:12:07;10.02;;;3.03;;
34200;SDS011;20469;55.638;37.670;2023-04-15T09:14:35;7.10;;;3.22;;
34200;SDS011;20469;55.638;37.670;2023-04-15T09:17:07;8.35;;;2.95;;
34200;SDS011;20469;55.638;37.670;2023-04-15T09:19:38;5.88;;;2.28;;
34200;SDS011;20469;55.638;37.670;2023-04-15T09:22:30;5.80;;;2.80;;
34200;SDS011;20469;55.638;37.670;2023-04-15T09:24:59;8.75;;;3.45;;
34200;SDS011;20469;55.638;37.670;2023-04-15T09:27:28;11.55;;;3.10;;
34200;SDS011;20469;55.638;37.670;2023-04-15T09:29:56;6.45;;;2.67;;
34200;SDS011;20469;55.638;37.670;2023-04-15T09:32:25;7.75;;;2.53;;
34200;SDS011;20469;55.638;37.670;2023-04-15T09:34:53;9.40;;;2.70;;
34200;SDS011;20469;55.638;37.670;2023-04-15T09:37:33;7.30;;;2.67;;
34200;SDS011;20469;55.638;37.670;2023-04-15T09:40:02;7.75;;;2.92;;
34200;SDS011;20469;55.638;37.670;2023-04-15T09:42:31;8.68;;;2.72;;
34200;SDS011;20469;55.638;37.670;2023-04-15T09:45:12;6.22;;;2.97;;
34200;SDS011;20469;55.638;37.670;2023-04-15T09:47:40;8.10;;;2.60;;
34200;SDS011;20469;55.638;37.670;2023-04-15T09:50:09;8.80;;;2.90;;
34200;SDS011;20469;55.638;37.670;2023-04-15T09:52:41;5.40;;;2.70;;
34200;SDS011;20469;55.638;37.670;2023-04-15T09:55:11;9.90;;;3.10;;
34200;SDS011;20469;55.638;37.670;2023-04-15T09:57:40;9.23;;;2.78;;
34200;SDS011;20469;55.638;37.670;2023-04-15T10:00:11;8.80;;;2.97;;
34200;SDS011;20469;55.638;37.670;2023-04-15T10:02:40;4.30;;;2.85;;
34200;SDS011;20469;55.638;37.670;2023-04-15T10:05:09;8.45;;;2.58;;
34200;SDS011;20469;55.638;37.670;2023-04-15T10:07:40;9.00;;;2.70;;
34200;SDS011;20469;55.638;37.670;2023-04-15T10:10:27;4.70;;;2.22;;
34200;SDS011;20469;55.638;37.670;2023-04-15T10:12:56;8.23;;;3.13;;
34200;SDS011;20469;55.638;37.670;2023-04-15T10:15:24;8.80;;;3.15;;
34200;SDS011;20469;55.638;37.670;2023-04-15T10:17:55;8.55;;;2.72;;
34200;SDS011;20469;55.638;37.670;2023-04-15T10:20:24;7.80;;;2.95;;
34200;SDS011;20469;55.638;37.670;2023-04-15T10:25:42;6.18;;;2.72;;
34200;SDS011;20469;55.638;37.670;2023-04-15T10:28:10;6.93;;;2.97;;
34200;SDS011;20469;55.638;37.670;2023-04-15T10:30:39;6.88;;;2.88;;
34200;SDS011;20469;55.638;37.670;2023-04-15T10:33:08;8.00;;;2.53;;
34200;SDS011;20469;55.638;37.670;2023-04-15T10:35:38;7.05;;;2.95;;
34200;SDS011;20469;55.638;37.670;2023-04-15T10:41:20;5.35;;;2.20;;
34200;SDS011;20469;55.638;37.670;2023-04-15T10:43:51;6.28;;;2.40;;
34200;SDS011;20469;55.638;37.670;2023-04-15T10:46:47;6.43;;;2.20;;
34200;SDS011;20469;55.638;37.670;2023-04-15T10:49:17;6.85;;;2.50;;
34200;SDS011;20469;55.638;37.670;2023-04-15T10:51:52;11.55;;;2.90;;
34200;SDS011;20469;55.638;37.670;2023-04-15T10:54:44;5.80;;;2.90;;
34200;SDS011;20469;55.638;37.670;2023-04-15T10:57:16;9.10;;;3.10;;
34200;SDS011;20469;55.638;37.670;2023-04-15T11:00:00;6.03;;;2.67;;
34200;SDS011;20469;55.638;37.670;2023-04-15T11:02:45;4.80;;;2.50;;
34200;SDS011;20469;55.638;37.670;2023-04-15T11:05:16;5.53;;;2.50;;
34200;SDS011;20469;55.638;37.670;2023-04-15T11:12:45;3.88;;;2.03;;
34200;SDS011;20469;55.638;37.670;2023-04-15T11:20:46;6.88;;;2.20;;
34200;SDS011;20469;55.638;37.670;2023-04-15T11:23:17;7.10;;;2.33;;
34200;SDS011;20469;55.638;37.670;2023-04-15T11:25:46;4.85;;;2.40;;
34200;SDS011;20469;55.638;37.670;2023-04-15T11:28:15;4.65;;;2.20;;
34200;SDS011;20469;55.638;37.670;2023-04-15T11:30:43;5.43;;;2.28;;
34200;SDS011;20469;55.638;37.670;2023-04-15T11:33:11;5.47;;;2.28;;
34200;SDS011;20469;55.638;37.670;2023-04-15T11:35:41;7.68;;;2.40;;
34200;SDS011;20469;55.638;37.670;2023-04-15T11:38:10;5.75;;;2.25;;
34200;SDS011;20469;55.638;37.670;2023-04-15T11:40:41;7.60;;;2.78;;
34200;SDS011;20469;55.638;37.670;2023-04-15T11:46:02;7.70;;;2.90;;
34200;SDS011;20469;55.638;37.670;2023-04-15T11:48:32;5.53;;;3.03;;
34200;SDS011;20469;55.638;37.670;2023-04-15T11:51:19;6.90;;;2.70;;
34200;SDS011;20469;55.638;37.670;2023-04-15T11:53:48;8.77;;;3.00;;
34200;SDS011;20469;55.638;37.670;2023-04-15T11:56:20;7.25;;;3.17;;
34200;SDS011;20469;55.638;37.670;2023-04-15T11:58:56;6.35;;;3.25;;
34200;SDS011;20469;55.638;37.670;2023-04-15T12:01:34;8.55;;;2.90;;
34200;SDS011;20469;55.638;37.670;2023-04-15T12:04:14;6.72;;;3.10;;
34200;SDS011;20469;55.638;37.670;2023-04-15T12:06:48;6.03;;;3.10;;
34200;SDS011;20469;55.638;37.670;2023-04-15T12:12:05;7.10;;;3.00;;
34200;SDS011;20469;55.638;37.670;2023-04-15T12:14:32;10.35;;;3.65;;
34200;SDS011;20469;55.638;37.670;2023-04-15T12:17:00;9.40;;;3.70;;
34200;SDS011;20469;55.638;37.670;2023-04-15T12:19:35;14.18;;;3.97;;
34200;SDS011;20469;55.638;37.670;2023-04-15T12:22:13;6.85;;;2.80;;
34200;SDS011;20469;55.638;37.670;2023-04-15T12:24:42;8.50;;;3.53;;
34200;SDS011;20469;55.638;37.670;2023-04-15T12:27:14;12.85;;;3.97;;
34200;SDS011;20469;55.638;37.670;2023-04-15T12:29:42;6.13;;;3.55;;
34200;SDS011;20469;55.638;37.670;2023-04-15T12:32:13;8.25;;;2.88;;
34200;SDS011;20469;55.638;37.670;2023-04-15T12:34:44;4.65;;;3.05;;
34200;SDS011;20469;55.638;37.670;2023-04-15T12:37:16;7.00;;;2.88;;
34200;SDS011;20469;55.638;37.670;2023-04-15T12:39:44;11.23;;;3.67;;
34200;SDS011;20469;55.638;37.670;2023-04-15T12:42:14;6.68;;;3.20;;
34200;SDS011;20469;55.638;37.670;2023-04-15T12:44:42;8.00;;;3.92;;
34200;SDS011;20469;55.638;37.670;2023-04-15T12:47:10;31.85;;;9.30;;
34200;SDS011;20469;55.638;37.670;2023-04-15T12:49:38;8.85;;;4.82;;
34200;SDS011;20469;55.638;37.670;2023-04-15T12:52:06;10.77;;;6.32;;
34200;SDS011;20469;55.638;37.670;2023-04-15T12:54:33;13.63;;;8.45;;
34200;SDS011;20469;55.638;37.670;2023-04-15T12:57:01;19.52;;;8.93;;
34200;SDS011;20469;55.638;37.670;2023-04-15T12:59:32;11.10;;;6.97;;
34200;SDS011;20469;55.638;37.670;2023-04-15T13:02:00;12.73;;;7.55;;
34200;SDS011;20469;55.638;37.670;2023-04-15T13:04:28;19.95;;;7.63;;
34200;SDS011;20469;55.638;37.670;2023-04-15T13:06:56;10.43;;;4.95;;
34200;SDS011;20469;55.638;37.670;2023-04-15T13:09:24;9.02;;;4.32;;
34200;SDS011;20469;55.638;37.670;2023-04-15T13:12:09;12.52;;;3.22;;
34200;SDS011;20469;55.638;37.670;2023-04-15T13:14:39;7.35;;;3.03;;
34200;SDS011;20469;55.638;37.670;2023-04-15T13:17:06;11.77;;;5.90;;
34200;SDS011;20469;55.638;37.670;2023-04-15T13:19:52;11.13;;;4.55;;
34200;SDS011;20469;55.638;37.670;2023-04-15T13:25:06;13.10;;;5.90;;
34200;SDS011;20469;55.638;37.670;2023-04-15T13:27:34;7.75;;;4.03;;
34200;SDS011;20469;55.638;37.670;2023-04-15T13:30:01;11.75;;;5.72;;
34200;SDS011;20469;55.638;37.670;2023-04-15T13:32:28;7.30;;;3.80;;
34200;SDS011;20469;55.638;37.670;2023-04-15T13:34:56;6.68;;;4.00;;
34200;SDS011;20469;55.638;37.670;2023-04-15T13:37:41;7.97;;;3.60;;
34200;SDS011;20469;55.638;37.670;2023-04-15T13:40:08;8.05;;;3.70;;
34200;SDS011;20469;55.638;37.670;2023-04-15T13:42:36;8.18;;;3.20;;
34200;SDS011;20469;55.638;37.670;2023-04-15T13:45:03;3.75;;;2.33;;
34200;SDS011;20469;55.638;37.670;2023-04-15T13:47:30;7.00;;;3.28;;
34200;SDS011;20469;55.638;37.670;2023-04-15T13:49:58;7.88;;;3.35;;
34200;SDS011;20469;55.638;37.670;2023-04-15T13:52:43;8.05;;;3.30;;
34200;SDS011;20469;55.638;37.670;2023-04-15T13:55:10;14.18;;;3.50;;
34200;SDS011;20469;55.638;37.670;2023-04-15T13:57:57;8.27;;;2.83;;
34200;SDS011;20469;55.638;37.670;2023-04-15T14:00:24;6.43;;;2.80;;
34200;SDS011;20469;55.638;37.670;2023-04-15T14:02:51;5.88;;;2.80;;
34200;SDS011;20469;55.638;37.670;2023-04-15T14:08:04;3.97;;;2.30;;
34200;SDS011;20469;55.638;37.670;2023-04-15T14:10:32;3.88;;;2.10;;
34200;SDS011;20469;55.638;37.670;2023-04-15T14:12:59;7.20;;;2.40;;
34200;SDS011;20469;55.638;37.670;2023-04-15T14:15:26;5.65;;;2.60;;
34200;SDS011;20469;55.638;37.670;2023-04-15T14:17:53;5.90;;;2.85;;
34200;SDS011;20469;55.638;37.670;2023-04-15T14:20:20;7.60;;;2.72;;
34200;SDS011;20469;55.638;37.670;2023-04-15T14:22:47;3.67;;;2.10;;
34200;SDS011;20469;55.638;37.670;2023-04-15T14:25:15;7.55;;;2.55;;
34200;SDS011;20469;55.638;37.670;2023-04-15T14:28:01;3.60;;;2.15;;
34200;SDS011;20469;55.638;37.670;2023-04-15T14:30:28;8.60;;;2.55;;
34200;SDS011;20469;55.638;37.670;2023-04-15T14:32:56;9.38;;;2.80;;
34200;SDS011;20469;55.638;37.670;2023-04-15T14:35:23;8.45;;;2.95;;
34200;SDS011;20469;55.638;37.670;2023-04-15T14:40:39;7.68;;;2.88;;
34200;SDS011;20469;55.638;37.670;2023-04-15T14:43:07;5.90;;;2.00;;
34200;SDS011;20469;55.638;37.670;2023-04-15T14:45:52;4.72;;;2.35;;
34200;SDS011;20469;55.638;37.670;2023-04-15T14:48:20;8.30;;;2.63;;
34200;SDS011;20469;55.638;37.670;2023-04-15T14:50:47;8.45;;;3.00;;
34200;SDS011;20469;55.638;37.670;2023-04-15T14:53:15;3.60;;;2.13;;
34200;SDS011;20469;55.638;37.670;2023-04-15T14:55:42;7.18;;;2.75;;
34200;SDS011;20469;55.638;37.670;2023-04-15T14:58:27;4.85;;;2.33;;
34200;SDS011;20469;55.638;37.670;2023-04-15T15:00:54;13.65;;;2.63;;
34200;SDS011;20469;55.638;37.670;2023-04-15T15:03:22;4.53;;;2.25;;
34200;SDS011;20469;55.638;37.670;2023-04-15T15:05:49;6.53;;;2.58;;
34200;SDS011;20469;55.638;37.670;2023-04-15T15:08:16;5.82;;;2.65;;
34200;SDS011;20469;55.638;37.670;2023-04-15T15:10:43;7.72;;;2.42;;
34200;SDS011;20469;55.638;37.670;2023-04-15T15:13:15;6.15;;;2.22;;
34200;SDS011;20469;55.638;37.670;2023-04-15T15:15:43;5.95;;;2.60;;
34200;SDS011;20469;55.638;37.670;2023-04-15T15:18:11;3.83;;;2.45;;